createdAt,value
2023-05-09T00:00:11.510Z,100017.25
2023-05-09T00:00:54.436Z,100020.75
2023-05-09T00:01:36.314Z,100019.09
2023-05-09T00:02:18.085Z,100018.28
2023-05-09T00:02:59.761Z,100015.81
2023-05-09T00:03:42.973Z,100014.78
2023-05-09T00:04:25.670Z,100012.09
2023-05-09T00:05:07.814Z,100017.25
2023-05-09T00:05:49.480Z,100018.06
2023-05-09T00:06:32.221Z,100007.78
2023-05-09T00:07:13.840Z,100018.06
2023-05-09T00:07:55.465Z,100018.28
2023-05-09T00:08:38.002Z,100014.41
2023-05-09T00:09:19.575Z,100015.59
2023-05-09T00:10:01.313Z,100018.88
2023-05-09T00:10:42.850Z,100005.94
2023-05-09T00:11:24.492Z,100014.16
2023-05-09T00:12:06.330Z,100014.16
2023-05-09T00:12:49.373Z,100012.31
2023-05-09T00:13:31.010Z,100007.78
2023-05-09T00:14:13.975Z,99987.44
2023-05-09T00:14:56.754Z,100006.97
2023-05-09T00:15:38.996Z,99977.19
2023-05-09T00:16:23.912Z,100001.63
2023-05-09T00:17:05.528Z,99988.06
2023-05-09T00:17:47.291Z,99982.13
2023-05-09T00:18:31.094Z,99999.78
2023-05-09T00:19:13.148Z,99997.53
2023-05-09T00:19:55.408Z,99995.06
2023-05-09T00:20:37.273Z,99985.44
2023-05-09T00:21:18.884Z,99991.00
2023-05-09T00:22:00.551Z,99972.38
2023-05-09T00:22:42.250Z,99981.16
2023-05-09T00:23:23.924Z,99960.03
2023-05-09T00:24:06.101Z,99996.38
2023-05-09T00:24:48.485Z,99965.19
2023-05-09T00:25:30.159Z,99989.59
2023-05-09T00:26:11.788Z,99983.25
2023-05-09T00:26:56.320Z,99991.88
2023-05-09T00:27:38.170Z,99993.94
2023-05-09T00:28:20.006Z,99990.63
2023-05-09T00:29:01.664Z,99967.25
2023-05-09T00:29:43.435Z,99978.56
2023-05-09T00:30:25.390Z,99994.13
2023-05-09T00:31:07.192Z,99957.41
2023-05-09T00:31:48.857Z,99981.19
2023-05-09T00:32:30.783Z,99931.56
2023-05-09T00:33:12.579Z,99954.72
2023-05-09T00:33:54.282Z,99980.56
2023-05-09T00:34:36.221Z,99977.28
2023-05-09T00:35:19.369Z,99980.16
2023-05-09T00:36:01.093Z,99982.63
2023-05-09T00:36:43.381Z,99984.47
2023-05-09T00:37:25.183Z,99980.56
2023-05-09T00:38:07.400Z,99959.06
2023-05-09T00:38:49.076Z,99931.78
2023-05-09T00:39:30.833Z,99963.19
2023-05-09T00:40:12.698Z,99966.03
2023-05-09T00:40:54.326Z,100000.50
2023-05-09T00:41:35.942Z,99984.47
2023-05-09T00:42:17.599Z,99987.16
2023-05-09T00:42:59.947Z,99983.25
2023-05-09T00:43:42.120Z,99955.97
2023-05-09T00:44:23.864Z,99956.56
2023-05-09T00:45:07.003Z,99976.88
2023-05-09T00:45:49.409Z,99978.69
2023-05-09T00:46:31.251Z,99980.13
2023-05-09T00:47:13.165Z,99968.00
2023-05-09T00:47:55.594Z,99972.91
2023-05-09T00:48:37.303Z,99973.53
2023-05-09T00:49:19.006Z,99973.31
2023-05-09T00:50:02.331Z,99948.28
2023-05-09T00:50:44.045Z,99972.91
2023-05-09T00:51:25.922Z,99959.56
2023-05-09T00:52:08.014Z,99950.56
2023-05-09T00:52:51.474Z,99947.28
2023-05-09T00:53:33.832Z,99969.22
2023-05-09T00:54:15.540Z,99952.19
2023-05-09T00:54:57.720Z,99963.88
2023-05-09T00:55:40.186Z,99960.00
2023-05-09T00:56:22.010Z,99965.97
2023-05-09T00:57:03.835Z,99973.34
2023-05-09T00:57:45.825Z,99956.53
2023-05-09T00:58:27.491Z,99970.28
2023-05-09T00:59:09.112Z,99951.44
2023-05-09T00:59:50.931Z,99970.50
2023-05-09T01:00:32.756Z,99952.88
2023-05-09T01:01:14.366Z,99969.94
2023-05-09T01:01:56.136Z,99951.25
2023-05-09T01:02:38.022Z,99948.19
2023-05-09T01:03:19.810Z,99944.28
2023-05-09T01:04:01.580Z,99966.44
2023-05-09T01:04:44.800Z,99962.13
2023-05-09T01:05:36.953Z,99954.94
2023-05-09T01:06:32.804Z,99954.09
2023-05-09T01:07:21.627Z,99938.94
2023-05-09T01:08:07.081Z,99941.63
2023-05-09T01:09:50.679Z,99955.34
2023-05-09T01:10:40.084Z,99951.25
2023-05-09T01:11:41.890Z,99955.56
2023-05-09T01:12:40.681Z,99943.22
2023-05-09T01:13:57.622Z,99951.03
2023-05-09T01:15:08.469Z,99959.44
2023-05-09T01:16:15.446Z,99961.72
2023-05-09T01:17:18.264Z,99948.63
2023-05-09T01:18:19.278Z,99966.44
2023-05-09T01:19:13.322Z,99961.53
2023-05-09T01:20:34.144Z,99959.69
2023-05-09T01:21:20.576Z,99958.25
2023-05-09T01:22:07.223Z,99965.63
2023-05-09T01:22:55.536Z,99965.59
2023-05-09T01:24:14.375Z,99958.22
2023-05-09T01:25:20.818Z,99963.53
2023-05-09T01:26:06.438Z,99961.47
2023-05-09T01:26:51.033Z,99962.31
2023-05-09T01:27:58.116Z,99954.91
2023-05-09T01:29:01.830Z,99953.88
2023-05-09T01:29:47.128Z,99956.34
2023-05-09T01:30:29.675Z,99941.97
2023-05-09T01:31:12.267Z,99939.28
2023-05-09T01:31:56.579Z,99952.00
2023-05-09T01:32:40.653Z,99955.91
2023-05-09T01:33:24.348Z,99955.47
2023-05-09T01:34:08.541Z,99948.50
2023-05-09T01:34:53.736Z,99955.66
2023-05-09T01:35:37.812Z,99940.91
2023-05-09T01:36:21.491Z,99954.00
2023-05-09T01:37:05.764Z,99958.53
2023-05-09T01:37:50.155Z,99931.88
2023-05-09T01:38:32.949Z,99953.84
2023-05-09T01:39:17.981Z,99944.81
2023-05-09T01:40:17.513Z,99951.38
2023-05-09T01:41:02.257Z,99950.75
2023-05-09T01:41:43.994Z,99952.81
2023-05-09T01:42:29.853Z,99957.34
2023-05-09T01:43:15.040Z,99934.16
2023-05-09T01:44:01.034Z,99951.38
2023-05-09T01:44:46.644Z,99947.50
2023-05-09T01:45:29.999Z,99952.41
2023-05-09T01:46:12.767Z,99954.06
2023-05-09T01:46:57.437Z,99952.00
2023-05-09T01:47:40.404Z,99954.25
2023-05-09T01:48:26.452Z,99938.66
2023-05-09T01:49:09.402Z,99939.47
2023-05-09T01:49:52.907Z,99948.44
2023-05-09T01:50:35.867Z,99946.97
2023-05-09T01:51:20.042Z,99952.53
2023-05-09T01:52:05.586Z,99940.19
2023-05-09T01:52:54.935Z,99942.84
2023-05-09T01:53:36.807Z,99936.94
2023-05-09T01:54:19.136Z,99943.25
2023-05-09T01:55:02.491Z,99944.06
2023-05-09T01:55:47.145Z,99928.09
2023-05-09T01:56:31.274Z,99936.69
2023-05-09T01:57:15.083Z,99942.84
2023-05-09T01:57:58.861Z,99921.91
2023-05-09T01:58:42.391Z,99940.63
2023-05-09T01:59:26.284Z,99931.78
2023-05-09T02:00:10.192Z,99929.94
2023-05-09T02:01:00.999Z,99938.97
2023-05-09T02:01:43.683Z,99927.66
2023-05-09T02:02:28.941Z,99935.25
2023-05-09T02:03:12.656Z,99934.03
2023-05-09T02:03:54.429Z,99941.69
2023-05-09T02:04:36.801Z,99930.59
2023-05-09T02:05:19.386Z,99938.59
2023-05-09T02:06:04.688Z,99933.66
2023-05-09T02:06:50.665Z,99932.03
2023-05-09T02:07:33.817Z,99935.16
2023-05-09T02:08:19.060Z,99933.50
2023-05-09T02:09:01.922Z,99926.13
2023-05-09T02:09:43.759Z,99927.34
2023-05-09T02:10:28.015Z,99930.84
2023-05-09T02:11:09.911Z,99918.97
2023-05-09T02:11:51.554Z,99905.41
2023-05-09T02:12:34.158Z,99930.63
2023-05-09T02:13:16.329Z,99919.59
2023-05-09T02:13:58.326Z,99916.72
2023-05-09T02:14:40.026Z,99932.06
2023-05-09T02:15:22.787Z,99928.59
2023-05-09T02:16:07.931Z,99906.03
2023-05-09T02:16:51.392Z,99925.34
2023-05-09T02:17:33.216Z,99921.22
2023-05-09T02:18:14.927Z,99919.16
2023-05-09T02:18:56.882Z,99919.00
2023-05-09T02:19:38.577Z,99924.13
2023-05-09T02:20:20.593Z,99909.75
2023-05-09T02:21:03.322Z,99928.22
2023-05-09T02:21:45.242Z,99916.53
2023-05-09T02:22:27.604Z,99928.63
2023-05-09T02:23:09.310Z,99924.91
2023-05-09T02:23:51.072Z,99931.50
2023-05-09T02:24:36.743Z,99929.41
2023-05-09T02:25:18.699Z,99928.16
2023-05-09T02:26:02.038Z,99933.09
2023-05-09T02:26:44.058Z,99915.47
2023-05-09T02:27:26.988Z,99934.94
2023-05-09T02:28:10.626Z,99924.66
2023-05-09T02:28:53.447Z,99934.50
2023-05-09T02:29:40.750Z,99936.13
2023-05-09T02:30:27.767Z,99933.00
2023-05-09T02:31:15.286Z,99926.84
2023-05-09T02:32:00.285Z,99930.53
2023-05-09T02:32:45.418Z,99925.38
2023-05-09T02:33:28.217Z,99930.28
2023-05-09T02:34:10.871Z,99921.47
2023-05-09T02:34:53.960Z,99919.34
2023-05-09T02:35:37.318Z,99915.69
2023-05-09T02:36:20.320Z,99909.91
2023-05-09T02:37:02.627Z,99919.31
2023-05-09T02:37:46.117Z,99913.59
2023-05-09T02:38:27.806Z,99915.63
2023-05-09T02:39:11.409Z,99911.47
2023-05-09T02:39:53.330Z,99902.25
2023-05-09T02:40:36.251Z,99894.66
2023-05-09T02:41:18.015Z,99910.22
2023-05-09T02:42:13.110Z,99901.16
2023-05-09T02:42:55.362Z,99898.72
2023-05-09T02:43:36.954Z,99896.25
2023-05-09T02:44:18.712Z,99894.00
2023-05-09T02:45:00.559Z,99878.22
2023-05-09T02:45:42.362Z,99884.41
2023-05-09T02:46:24.230Z,99890.13
2023-05-09T02:47:07.220Z,99874.59
2023-05-09T02:47:48.992Z,99887.69
2023-05-09T02:48:30.677Z,99883.56
2023-05-09T02:49:22.753Z,99894.44
2023-05-09T02:50:13.070Z,99894.66
2023-05-09T02:50:54.715Z,99899.59
2023-05-09T02:51:36.386Z,99894.47
2023-05-09T02:52:18.108Z,99896.38
2023-05-09T02:52:59.799Z,99882.88
2023-05-09T02:53:41.543Z,99880.38
2023-05-09T02:54:23.409Z,99891.91
2023-05-09T02:55:07.282Z,99875.88
2023-05-09T02:55:54.448Z,99902.56
2023-05-09T02:56:36.080Z,99897.06
2023-05-09T02:57:17.764Z,99905.84
2023-05-09T02:58:12.857Z,99902.56
2023-05-09T02:58:56.722Z,99904.25
2023-05-09T02:59:38.420Z,99910.81
2023-05-09T03:00:21.509Z,99896.28
2023-05-09T03:01:03.273Z,99897.56
2023-05-09T03:01:45.113Z,99913.34
2023-05-09T03:02:27.050Z,99905.56
2023-05-09T03:03:09.314Z,99901.06
2023-05-09T03:03:51.126Z,99917.91
2023-05-09T03:04:35.164Z,99915.03
2023-05-09T03:05:17.725Z,99910.09
2023-05-09T03:05:59.370Z,99899.00
2023-05-09T03:06:41.184Z,99905.31
2023-05-09T03:07:22.984Z,99905.09
2023-05-09T03:08:05.152Z,99904.25
2023-05-09T03:08:48.307Z,99897.25
2023-05-09T03:09:30.215Z,99904.63
2023-05-09T03:10:12.290Z,99891.25
2023-05-09T03:10:54.384Z,99885.28
2023-05-09T03:11:37.151Z,99886.66
2023-05-09T03:12:19.087Z,99879.53
2023-05-09T03:13:01.141Z,99870.47
2023-05-09T03:13:42.801Z,99869.22
2023-05-09T03:14:24.536Z,99873.91
2023-05-09T03:15:07.196Z,99888.06
2023-05-09T03:15:49.112Z,99874.75
2023-05-09T03:16:31.239Z,99890.69
2023-05-09T03:17:17.330Z,99889.88
2023-05-09T03:17:59.528Z,99886.38
2023-05-09T03:18:41.470Z,99886.81
2023-05-09T03:19:23.212Z,99885.41
2023-05-09T03:20:06.186Z,99881.28
2023-05-09T03:20:47.905Z,99882.34
2023-05-09T03:21:29.964Z,99880.69
2023-05-09T03:22:11.702Z,99886.03
2023-05-09T03:22:59.834Z,99870.69
2023-05-09T03:23:41.621Z,99876.44
2023-05-09T03:24:26.703Z,99872.75
2023-05-09T03:25:08.447Z,99875.44
2023-05-09T03:25:50.201Z,99878.50
2023-05-09T03:26:32.295Z,99883.63
2023-05-09T03:27:14.187Z,99878.88
2023-05-09T03:27:56.052Z,99870.63
2023-05-09T03:28:38.756Z,99864.09
2023-05-09T03:29:21.574Z,99878.03
2023-05-09T03:30:03.592Z,99879.44
2023-05-09T03:30:45.409Z,99862.41
2023-05-09T03:31:30.108Z,99873.88
2023-05-09T03:32:13.887Z,99878.03
2023-05-09T03:32:56.782Z,99864.69
2023-05-09T03:33:38.598Z,99857.34
2023-05-09T03:34:20.341Z,99851.59
2023-05-09T03:35:02.083Z,99873.66
2023-05-09T03:35:45.645Z,99871.97
2023-05-09T03:36:27.499Z,99873.19
2023-05-09T03:37:09.922Z,99869.28
2023-05-09T03:37:54.760Z,99859.84
2023-05-09T03:38:36.538Z,99870.25
2023-05-09T03:39:18.282Z,99875.16
2023-05-09T03:40:02.722Z,99867.75
2023-05-09T03:40:47.780Z,99870.22
2023-05-09T03:41:29.439Z,99874.28
2023-05-09T03:42:11.734Z,99867.91
2023-05-09T03:42:55.046Z,99864.41
2023-05-09T03:43:37.244Z,99857.06
2023-05-09T03:44:18.967Z,99863.59
2023-05-09T03:45:01.209Z,99862.19
2023-05-09T03:45:43.805Z,99859.56
2023-05-09T03:46:27.483Z,99850.38
2023-05-09T03:47:09.961Z,99859.84
2023-05-09T03:47:54.641Z,99865.78
2023-05-09T03:48:36.414Z,99853.28
2023-05-09T03:49:18.074Z,99843.19
2023-05-09T03:50:01.094Z,99861.84
2023-05-09T03:50:43.255Z,99856.94
2023-05-09T03:51:26.931Z,99855.50
2023-05-09T03:52:09.970Z,99866.59
2023-05-09T03:52:51.837Z,99862.50
2023-05-09T03:53:33.576Z,99853.09
2023-05-09T03:54:15.874Z,99858.63
2023-05-09T03:54:57.625Z,99854.56
2023-05-09T03:55:39.842Z,99869.56
2023-05-09T03:56:22.471Z,99865.69
2023-05-09T03:57:07.042Z,99856.44
2023-05-09T03:57:49.331Z,99853.84
2023-05-09T03:58:31.522Z,99861.03
2023-05-09T03:59:13.519Z,99855.97
2023-05-09T03:59:55.292Z,99871.16
2023-05-09T04:00:37.079Z,99862.75
2023-05-09T04:01:25.361Z,99868.91
2023-05-09T04:02:07.458Z,99864.03
2023-05-09T04:02:50.021Z,99876.97
2023-05-09T04:03:41.196Z,99874.72
2023-05-09T04:04:23.818Z,99857.50
2023-05-09T04:05:05.972Z,99873.28
2023-05-09T04:05:48.762Z,99863.25
2023-05-09T04:06:40.765Z,99876.56
2023-05-09T04:07:24.825Z,99861.00
2023-05-09T04:08:06.577Z,99858.31
2023-05-09T04:08:48.374Z,99874.50
2023-05-09T04:09:30.568Z,99871.41
2023-05-09T04:10:12.459Z,99866.06
2023-05-09T04:10:54.177Z,99857.44
2023-05-09T04:11:36.220Z,99862.53
2023-05-09T04:12:20.477Z,99871.97
2023-05-09T04:13:02.372Z,99876.25
2023-05-09T04:13:44.490Z,99873.75
2023-05-09T04:14:39.776Z,99867.31
2023-05-09T04:15:21.732Z,99872.25
2023-05-09T04:16:04.412Z,99861.72
2023-05-09T04:16:48.342Z,99871.97
2023-05-09T04:17:30.124Z,99868.88
2023-05-09T04:18:11.941Z,99859.84
2023-05-09T04:18:53.592Z,99869.91
2023-05-09T04:19:35.257Z,99851.47
2023-05-09T04:20:16.996Z,99861.28
2023-05-09T04:20:58.800Z,99861.28
2023-05-09T04:21:40.506Z,99858.41
2023-05-09T04:22:22.916Z,99862.50
2023-05-09T04:23:05.985Z,99850.59
2023-05-09T04:23:47.898Z,99864.72
2023-05-09T04:24:31.459Z,99859.16
2023-05-09T04:25:14.906Z,99853.00
2023-05-09T04:25:57.356Z,99863.69
2023-05-09T04:26:39.711Z,99856.13
2023-05-09T04:27:24.985Z,99851.84
2023-05-09T04:28:07.092Z,99851.63
2023-05-09T04:28:49.054Z,99853.69
2023-05-09T04:29:32.340Z,99848.19
2023-05-09T04:30:14.769Z,99860.06
2023-05-09T04:30:56.712Z,99862.38
2023-05-09T04:31:38.743Z,99861.56
2023-05-09T04:32:23.251Z,99854.78
2023-05-09T04:33:05.597Z,99863.63
2023-05-09T04:33:47.837Z,99864.66
2023-05-09T04:34:29.917Z,99857.66
2023-05-09T04:35:16.894Z,99854.22
2023-05-09T04:36:02.524Z,99852.81
2023-05-09T04:36:44.609Z,99852.75
2023-05-09T04:37:26.810Z,99860.28
2023-05-09T04:38:08.866Z,99850.06
2023-05-09T04:38:52.309Z,99845.88
2023-05-09T04:39:39.011Z,99844.84
2023-05-09T04:40:29.258Z,99856.28
2023-05-09T04:41:14.180Z,99854.81
2023-05-09T04:41:56.115Z,99853.56
2023-05-09T04:42:38.661Z,99849.59
2023-05-09T04:43:20.329Z,99834.03
2023-05-09T04:44:03.228Z,99843.00
2023-05-09T04:44:45.041Z,99839.53
2023-05-09T04:45:27.724Z,99837.63
2023-05-09T04:46:10.069Z,99841.72
2023-05-09T04:46:52.207Z,99834.28
2023-05-09T04:47:33.919Z,99838.97
2023-05-09T04:48:15.732Z,99838.16
2023-05-09T04:48:57.439Z,99835.09
2023-05-09T04:49:39.205Z,99829.75
2023-05-09T04:50:23.922Z,99829.97
2023-05-09T04:51:05.767Z,99833.91
2023-05-09T04:51:47.523Z,99841.56
2023-05-09T04:52:29.261Z,99837.06
2023-05-09T04:53:11.527Z,99844.25
2023-05-09T04:53:53.334Z,99848.00
2023-05-09T04:54:38.697Z,99839.75
2023-05-09T04:55:21.874Z,99829.75
2023-05-09T04:56:05.551Z,99844.88
2023-05-09T04:56:50.037Z,99836.09
2023-05-09T04:57:34.580Z,99846.69
2023-05-09T04:58:18.241Z,99841.34
2023-05-09T04:59:00.776Z,99844.00
2023-05-09T04:59:42.531Z,99840.53
2023-05-09T05:00:25.555Z,99845.88
2023-05-09T05:01:07.250Z,99832.72
2023-05-09T05:01:49.090Z,99830.25
2023-05-09T05:02:30.914Z,99833.81
2023-05-09T05:03:12.916Z,99835.66
2023-05-09T05:03:54.587Z,99836.84
2023-05-09T05:04:36.275Z,99842.41
2023-05-09T05:05:24.680Z,99823.59
2023-05-09T05:06:08.149Z,99836.91
2023-05-09T05:06:51.056Z,99823.44
2023-05-09T05:07:35.440Z,99842.09
2023-05-09T05:08:17.166Z,99839.41
2023-05-09T05:08:59.744Z,99837.84
2023-05-09T05:09:41.429Z,99851.00
2023-05-09T05:10:23.231Z,99843.41
2023-05-09T05:11:10.117Z,99841.97
2023-05-09T05:12:00.756Z,99844.69
2023-05-09T05:12:44.672Z,99850.41
2023-05-09T05:13:28.427Z,99852.25
2023-05-09T05:14:13.487Z,99820.53
2023-05-09T05:14:55.668Z,99843.88
2023-05-09T05:15:37.862Z,99846.13
2023-05-09T05:16:20.472Z,99850.00
2023-05-09T05:17:02.371Z,99825.59
2023-05-09T05:17:44.100Z,99845.44
2023-05-09T05:18:25.913Z,99843.94
2023-05-09T05:19:08.220Z,99847.59
2023-05-09T05:19:53.627Z,99841.38
2023-05-09T05:20:35.526Z,99824.16
2023-05-09T05:21:17.341Z,99838.66
2023-05-09T05:21:59.800Z,99834.50
2023-05-09T05:22:41.569Z,99831.81
2023-05-09T05:23:23.286Z,99833.03
2023-05-09T05:24:08.274Z,99832.59
2023-05-09T05:24:50.238Z,99827.84
2023-05-09T05:25:32.011Z,99823.31
2023-05-09T05:26:15.427Z,99819.22
2023-05-09T05:26:57.597Z,99829.63
2023-05-09T05:27:40.022Z,99826.75
2023-05-09T05:28:23.451Z,99818.50
2023-05-09T05:29:06.088Z,99818.13
2023-05-09T05:29:47.808Z,99824.44
2023-05-09T05:30:31.573Z,99821.78
2023-05-09T05:31:14.537Z,99818.66
2023-05-09T05:31:56.319Z,99821.34
2023-05-09T05:32:38.187Z,99816.84
2023-05-09T05:33:21.136Z,99817.69
2023-05-09T05:34:03.234Z,99813.78
2023-05-09T05:34:46.573Z,99811.19
2023-05-09T05:35:29.227Z,99814.25
2023-05-09T05:36:11.626Z,99800.41
2023-05-09T05:36:53.528Z,99802.13
2023-05-09T05:37:35.541Z,99801.94
2023-05-09T05:38:17.567Z,99811.94
2023-05-09T05:39:03.652Z,99812.53
2023-05-09T05:39:45.428Z,99798.44
2023-05-09T05:40:27.252Z,99806.16
2023-05-09T05:41:11.308Z,99811.94
2023-05-09T05:41:54.833Z,99812.63
2023-05-09T05:42:36.856Z,99803.81
2023-05-09T05:43:18.566Z,99814.75
2023-05-09T05:44:00.752Z,99818.44
2023-05-09T05:44:42.621Z,99821.59
2023-05-09T05:45:24.813Z,99823.44
2023-05-09T05:46:10.660Z,99826.31
2023-05-09T05:46:52.624Z,99822.63
2023-05-09T05:47:35.912Z,99820.34
2023-05-09T05:48:18.196Z,99824.78
2023-05-09T05:49:01.231Z,99824.34
2023-05-09T05:49:43.265Z,99823.94
2023-05-09T05:50:24.959Z,99814.47
2023-05-09T05:51:08.284Z,99819.41
2023-05-09T05:51:51.450Z,99819.00
2023-05-09T05:52:33.242Z,99813.69
2023-05-09T05:53:16.010Z,99820.09
2023-05-09T05:53:58.933Z,99821.94
2023-05-09T05:54:40.722Z,99816.25
2023-05-09T05:55:22.741Z,99826.31
2023-05-09T05:56:04.586Z,99827.38
2023-05-09T05:56:47.489Z,99813.25
2023-05-09T05:57:30.205Z,99826.38
2023-05-09T05:58:12.065Z,99816.56
2023-05-09T05:58:53.997Z,99834.03
2023-05-09T05:59:38.384Z,99828.22
2023-05-09T06:00:20.804Z,99826.97
2023-05-09T06:01:09.027Z,99831.06
2023-05-09T06:01:51.296Z,99826.31
2023-05-09T06:02:33.332Z,99825.91
2023-05-09T06:03:15.870Z,99814.16
2023-05-09T06:04:23.835Z,99832.78
2023-05-09T06:05:07.061Z,99828.59
2023-05-09T06:05:49.671Z,99821.16
2023-05-09T06:06:32.294Z,99820.56
2023-05-09T06:07:14.949Z,99816.84
2023-05-09T06:07:56.608Z,99809.44
2023-05-09T06:08:38.297Z,99811.91
2023-05-09T06:09:20.159Z,99795.47
2023-05-09T06:10:01.830Z,99802.84
2023-05-09T06:10:43.982Z,99809.75
2023-05-09T06:11:26.149Z,99788.41
2023-05-09T06:12:08.090Z,99810.13
2023-05-09T06:12:50.186Z,99806.41
2023-05-09T06:13:35.048Z,99803.34
2023-05-09T06:14:19.603Z,99806.47
2023-05-09T06:15:01.472Z,99808.53
2023-05-09T06:15:43.603Z,99805.03
2023-05-09T06:16:25.614Z,99798.31
2023-05-09T06:17:08.397Z,99806.94
2023-05-09T06:17:50.419Z,99809.22
2023-05-09T06:18:32.142Z,99807.38
2023-05-09T06:19:15.647Z,99811.22
2023-05-09T06:19:57.281Z,99804.78
2023-05-09T06:20:39.039Z,99807.34
2023-05-09T06:21:20.717Z,99806.31
2023-05-09T06:22:02.460Z,99812.81
2023-05-09T06:22:44.120Z,99812.00
2023-05-09T06:23:26.155Z,99797.56
2023-05-09T06:24:12.218Z,99804.34
2023-05-09T06:25:02.775Z,99802.66
2023-05-09T06:25:44.392Z,99798.25
2023-05-09T06:26:26.803Z,99792.44
2023-05-09T06:27:08.965Z,99793.50
2023-05-09T06:27:50.708Z,99799.06
2023-05-09T06:28:32.509Z,99783.53
2023-05-09T06:29:15.392Z,99782.94
2023-05-09T06:29:57.090Z,99793.88
2023-05-09T06:30:38.768Z,99785.84
2023-05-09T06:31:20.497Z,99789.13
2023-05-09T06:32:02.202Z,99788.66
2023-05-09T06:32:43.920Z,99775.13
2023-05-09T06:33:25.576Z,99788.50
2023-05-09T06:34:07.970Z,99781.53
2023-05-09T06:34:49.611Z,99784.41
2023-05-09T06:35:31.257Z,99778.50
2023-05-09T06:36:12.986Z,99787.09
2023-05-09T06:36:54.653Z,99781.31
2023-05-09T06:37:36.274Z,99771.63
2023-05-09T06:38:17.919Z,99780.41
2023-05-09T06:38:59.876Z,99785.09
2023-05-09T06:39:41.526Z,99778.56
2023-05-09T06:40:23.215Z,99771.63
2023-05-09T06:41:05.088Z,99783.91
2023-05-09T06:41:46.801Z,99778.56
2023-05-09T06:42:34.751Z,99772.63
2023-05-09T06:43:16.519Z,99786.13
2023-05-09T06:43:58.297Z,99772.63
2023-05-09T06:44:39.998Z,99780.31
2023-05-09T06:45:21.909Z,99776.16
2023-05-09T06:46:03.977Z,99775.72
2023-05-09T06:46:45.898Z,99778.63
2023-05-09T06:47:27.738Z,99775.72
2023-05-09T06:48:09.519Z,99780.03
2023-05-09T06:48:51.187Z,99778.16
2023-05-09T06:49:32.935Z,99777.47
2023-05-09T06:50:14.858Z,99772.50
2023-05-09T06:50:56.543Z,99769.72
2023-05-09T06:51:38.255Z,99754.34
2023-05-09T06:52:21.502Z,99764.28
2023-05-09T06:53:03.193Z,99769.91
2023-05-09T06:53:44.897Z,99766.31
2023-05-09T06:54:26.610Z,99776.94
2023-05-09T06:55:09.096Z,99771.69
2023-05-09T06:55:50.975Z,99764.47
2023-05-09T06:56:32.782Z,99763.81
2023-05-09T06:57:14.446Z,99759.50
2023-05-09T06:57:56.181Z,99763.47
2023-05-09T06:58:37.930Z,99768.78
2023-05-09T06:59:19.729Z,99758.88
2023-05-09T07:00:01.516Z,99764.53
2023-05-09T07:00:43.264Z,99749.13
2023-05-09T07:01:27.561Z,99768.16
2023-05-09T07:02:09.251Z,99760.28
2023-05-09T07:02:51.066Z,99759.09
2023-05-09T07:03:33.376Z,99751.53
2023-05-09T07:04:15.032Z,99759.03
2023-05-09T07:04:56.761Z,99746.06
2023-05-09T07:05:38.485Z,99758.09
2023-05-09T07:06:20.710Z,99744.81
2023-05-09T07:07:02.400Z,99747.34
2023-05-09T07:07:44.252Z,99738.94
2023-05-09T07:08:26.676Z,99742.56
2023-05-09T07:09:08.891Z,99751.53
2023-05-09T07:09:52.901Z,99754.00
2023-05-09T07:10:38.606Z,99750.63
2023-05-09T07:11:21.159Z,99745.94
2023-05-09T07:12:03.098Z,99751.19
2023-05-09T07:12:44.781Z,99747.47
2023-05-09T07:13:26.790Z,99752.84
2023-05-09T07:14:08.491Z,99752.94
2023-05-09T07:14:50.186Z,99755.38
2023-05-09T07:15:41.373Z,99750.97
2023-05-09T07:16:24.064Z,99744.19
2023-05-09T07:17:21.850Z,99742.44
2023-05-09T07:18:05.029Z,99750.69
2023-05-09T07:18:46.776Z,99735.41
2023-05-09T07:19:28.442Z,99743.13
2023-05-09T07:20:10.585Z,99747.28
2023-05-09T07:20:52.397Z,99735.72
2023-05-09T07:21:34.398Z,99740.19
2023-05-09T07:22:16.323Z,99744.88
2023-05-09T07:22:58.625Z,99742.50
2023-05-09T07:23:40.364Z,99741.44
2023-05-09T07:24:22.109Z,99742.03
2023-05-09T07:25:04.073Z,99732.09
2023-05-09T07:25:45.770Z,99736.91
2023-05-09T07:26:27.444Z,99739.34
2023-05-09T07:27:09.129Z,99737.81
2023-05-09T07:27:50.771Z,99728.34
2023-05-09T07:28:32.493Z,99727.13
2023-05-09T07:29:14.838Z,99730.00
2023-05-09T07:29:56.620Z,99731.97
2023-05-09T07:30:38.694Z,99707.31
2023-05-09T07:31:20.432Z,99716.59
2023-05-09T07:32:02.181Z,99714.84
2023-05-09T07:32:43.993Z,99721.56
2023-05-09T07:33:25.701Z,99719.06
2023-05-09T07:34:07.501Z,99719.06
2023-05-09T07:34:49.221Z,99711.72
2023-05-09T07:35:30.982Z,99714.97
2023-05-09T07:36:14.695Z,99713.94
2023-05-09T07:36:56.496Z,99712.03
2023-05-09T07:37:38.137Z,99712.31
2023-05-09T07:38:19.909Z,99712.19
2023-05-09T07:39:01.609Z,99710.91
2023-05-09T07:39:43.374Z,99705.06
2023-05-09T07:40:25.043Z,99701.88
2023-05-09T07:41:06.915Z,99698.16
2023-05-09T07:41:48.980Z,99696.09
2023-05-09T07:42:32.589Z,99671.25
2023-05-09T07:43:14.378Z,99697.72
2023-05-09T07:43:56.085Z,99686.88
2023-05-09T07:44:37.802Z,99679.03
2023-05-09T07:45:21.291Z,99692.94
2023-05-09T07:46:05.431Z,99683.13
2023-05-09T07:46:47.210Z,99684.59
2023-05-09T07:47:28.928Z,99688.75
2023-05-09T07:48:11.029Z,99682.44
2023-05-09T07:48:55.603Z,99683.19
2023-05-09T07:49:37.484Z,99670.25
2023-05-09T07:50:19.262Z,99681.91
2023-05-09T07:51:00.999Z,99685.34
2023-05-09T07:51:42.758Z,99677.84
2023-05-09T07:52:24.530Z,99685.34
2023-05-09T07:53:06.545Z,99688.91
2023-05-09T07:53:48.269Z,99693.94
2023-05-09T07:54:29.937Z,99699.38
2023-05-09T07:55:12.470Z,99695.78
2023-05-09T07:55:54.292Z,99698.41
2023-05-09T07:56:36.005Z,99689.44
2023-05-09T07:57:17.879Z,99697.38
2023-05-09T07:57:59.656Z,99701.28
2023-05-09T07:58:41.318Z,99696.69
2023-05-09T07:59:22.974Z,99682.63
2023-05-09T08:00:06.370Z,99692.88
2023-05-09T08:00:57.095Z,99705.97
2023-05-09T08:01:39.061Z,99691.88
2023-05-09T08:02:20.819Z,99689.63
2023-05-09T08:03:02.722Z,99684.72
2023-05-09T08:03:44.659Z,99688.00
2023-05-09T08:04:26.708Z,99690.75
2023-05-09T08:05:11.380Z,99671.03
2023-05-09T08:05:55.526Z,99686.06
2023-05-09T08:06:37.333Z,99664.50
2023-05-09T08:07:19.065Z,99687.84
2023-05-09T08:08:00.854Z,99677.09
2023-05-09T08:08:42.524Z,99685.72
2023-05-09T08:09:24.260Z,99680.84
2023-05-09T08:10:06.846Z,99688.56
2023-05-09T08:10:48.575Z,99689.94
2023-05-09T08:11:33.561Z,99691.69
2023-05-09T08:12:15.288Z,99694.56
2023-05-09T08:12:57.106Z,99687.72
2023-05-09T08:13:38.794Z,99691.56
2023-05-09T08:14:20.488Z,99687.81
2023-05-09T08:15:02.648Z,99686.53
2023-05-09T08:15:46.391Z,99682.56
2023-05-09T08:16:28.173Z,99675.56
2023-05-09T08:17:09.875Z,99661.00
2023-05-09T08:17:51.708Z,99678.47
2023-05-09T08:18:33.567Z,99674.56
2023-05-09T08:19:15.782Z,99673.75
2023-05-09T08:19:57.551Z,99669.84
2023-05-09T08:20:39.384Z,99672.97
2023-05-09T08:21:22.339Z,99655.94
2023-05-09T08:22:04.323Z,99667.44
2023-05-09T08:22:46.042Z,99665.66
2023-05-09T08:23:27.987Z,99669.00
2023-05-09T08:24:09.773Z,99663.19
2023-05-09T08:24:52.773Z,99661.59
2023-05-09T08:25:34.437Z,99658.28
2023-05-09T08:26:16.224Z,99646.19
2023-05-09T08:26:58.064Z,99654.81
2023-05-09T08:27:42.754Z,99647.47
2023-05-09T08:28:24.613Z,99634.78
2023-05-09T08:29:06.332Z,99630.72